Station Historical Data
Daily Summary for April 21, 2017 Units:  English    Metric   Both
« Previous Day
Next Day »
Daily Weekly Monthly Yearly Custom
  High: Low: Average:
Temperature: 52.5 °F 44.2 °F 48 °F
Dew Point: 51.1 °F 37.8 °F 44.6 °F
Humidity: 96% 73% 88%
Wind Speed: 15.0mph 0.0mph 4.8mph
Wind Gust: 24.0mph - -
Wind- - WSW
Pressure: 30.02 in 29.76 in -
Precipitation: 0.00 in    
Historical Graphs
 
 
Tabular Data for April 21, 2017
Time Temperature Dew Point Pressure Wind Wind Speed Wind Gust Humidity Rainfall Rate (Hourly)
00:04 50.9 °F 49.5 °F 29.79 in NNW 2.0 mph 2.0 mph 95% 0.01 in
00:09 51.0 °F 49.3 °F 29.80 in NNW 1.0 mph 4.0 mph 94% 0.01 in
00:14 50.9 °F 49.2 °F 29.79 in NNW 2.0 mph 4.0 mph 94% 0.01 in
00:19 50.7 °F 49.0 °F 29.79 in NNW 1.0 mph 3.0 mph 94% 0.01 in
00:24 50.5 °F 48.8 °F 29.78 in Calm     94% 0.01 in
00:29 50.1 °F 48.4 °F 29.78 in NNW 1.0 mph 2.0 mph 94% 0.01 in
00:34 50.0 °F 48.3 °F 29.78 in Calm   3.0 mph 94% 0.01 in
00:39 50.0 °F 48.3 °F 29.78 in Calm     94% 0.01 in
00:44 50.0 °F 48.3 °F 29.78 in Calm     94% 0.01 in
00:49 50.1 °F 48.4 °F 29.78 in Calm   2.0 mph 94% 0.01 in
00:54 50.1 °F 48.4 °F 29.78 in Calm   2.0 mph 94% 0.01 in
00:59 50.0 °F 48.3 °F 29.77 in SSW 1.0 mph 3.0 mph 94% 0.00 in
01:04 50.1 °F 48.4 °F 29.77 in South 1.0 mph 3.0 mph 94% 0.00 in
01:09 50.2 °F 48.5 °F 29.77 in SSE 1.0 mph 2.0 mph 94% 0.00 in
01:14 50.3 °F 48.9 °F 29.77 in Calm   2.0 mph 95% 0.00 in
01:19 50.3 °F 48.6 °F 29.77 in Calm     94% 0.00 in
01:24 50.2 °F 48.5 °F 29.77 in Calm     94% 0.00 in
01:29 50.0 °F 48.3 °F 29.77 in Calm     94% 0.00 in
01:34 50.0 °F 48.3 °F 29.76 in Calm     94% 0.00 in
01:39 50.2 °F 48.8 °F 29.77 in Calm     95% 0.00 in
01:44 50.4 °F 49.0 °F 29.77 in Calm     95% 0.00 in
01:49 50.5 °F 49.1 °F 29.76 in Calm     95% 0.00 in
01:54 50.7 °F 49.3 °F 29.76 in Calm     95% 0.00 in
01:59 50.9 °F 49.5 °F 29.76 in Calm     95% 0.00 in
02:04 50.9 °F 49.5 °F 29.76 in Calm     95% 0.00 in
02:09 50.9 °F 49.5 °F 29.76 in Calm     95% 0.00 in
02:14 50.9 °F 49.5 °F 29.76 in Calm     95% 0.00 in
02:19 51.1 °F 49.7 °F 29.76 in Calm     95% 0.00 in
02:24 51.5 °F 50.1 °F 29.76 in Calm   3.0 mph 95% 0.00 in
02:29 52.0 °F 50.6 °F 29.77 in SW 1.0 mph 3.0 mph 95% 0.00 in
02:34 52.1 °F 50.7 °F 29.76 in WSW 2.0 mph 4.0 mph 95% 0.00 in
02:39 52.2 °F 50.8 °F 29.76 in SW 4.0 mph 5.0 mph 95% 0.00 in
02:44 52.3 °F 50.9 °F 29.77 in West 3.0 mph 4.0 mph 95% 0.00 in
02:49 52.4 °F 51.0 °F 29.77 in West 2.0 mph 5.0 mph 95% 0.00 in
02:54 52.4 °F 51.0 °F 29.77 in West 3.0 mph 5.0 mph 95% 0.00 in
02:59 52.3 °F 50.9 °F 29.77 in WSW 2.0 mph 3.0 mph 95% 0.00 in
03:04 52.4 °F 51.0 °F 29.77 in West 1.0 mph 4.0 mph 95% 0.00 in
03:09 52.5 °F 51.1 °F 29.76 in WNW 3.0 mph 6.0 mph 95% 0.00 in
03:14 52.4 °F 51.0 °F 29.77 in West 2.0 mph 6.0 mph 95% 0.00 in
03:19 52.3 °F 50.9 °F 29.76 in WNW 3.0 mph 7.0 mph 95% 0.00 in
03:24 52.2 °F 50.8 °F 29.76 in West 3.0 mph 7.0 mph 95% 0.00 in
03:29 52.2 °F 50.8 °F 29.76 in West 3.0 mph 5.0 mph 95% 0.00 in
03:34 52.2 °F 50.8 °F 29.76 in West 2.0 mph 5.0 mph 95% 0.00 in
03:39 52.1 °F 50.7 °F 29.76 in West 2.0 mph 5.0 mph 95% 0.00 in
03:44 52.1 °F 50.7 °F 29.76 in West 2.0 mph 5.0 mph 95% 0.00 in
03:49 52.1 °F 50.7 °F 29.76 in West 2.0 mph 5.0 mph 95% 0.00 in
03:54 52.1 °F 50.7 °F 29.77 in West 2.0 mph 3.0 mph 95% 0.00 in
03:59 52.2 °F 50.8 °F 29.76 in WSW 1.0 mph 4.0 mph 95% 0.00 in
04:04 52.2 °F 50.8 °F 29.76 in WSW 2.0 mph 3.0 mph 95% 0.00 in
04:09 52.1 °F 50.7 °F 29.77 in Calm   4.0 mph 95% 0.00 in
04:14 52.1 °F 50.7 °F 29.77 in SW 1.0 mph 4.0 mph 95% 0.00 in
04:19 52.1 °F 50.7 °F 29.77 in West 4.0 mph 4.0 mph 95% 0.00 in
04:24 52.1 °F 50.7 °F 29.78 in SW 2.0 mph 4.0 mph 95% 0.00 in
04:29 52.1 °F 50.7 °F 29.78 in WSW 2.0 mph 4.0 mph 95% 0.00 in
04:34 52.2 °F 50.8 °F 29.77 in SW 2.0 mph 4.0 mph 95% 0.00 in
04:39 52.2 °F 50.8 °F 29.77 in SW 2.0 mph 5.0 mph 95% 0.00 in
04:44 52.0 °F 50.6 °F 29.78 in SSW 5.0 mph 6.0 mph 95% 0.00 in
04:49 51.5 °F 49.8 °F 29.78 in SW 3.0 mph 7.0 mph 94% 0.00 in
04:54 51.0 °F 49.3 °F 29.79 in SW 4.0 mph 9.0 mph 94% 0.00 in
04:59 50.3 °F 48.6 °F 29.79 in SW 4.0 mph 9.0 mph 94% 0.00 in
05:04 49.9 °F 48.2 °F 29.78 in WSW 3.0 mph 8.0 mph 94% 0.00 in
05:09 49.5 °F 47.8 °F 29.78 in Calm   4.0 mph 94% 0.00 in
05:14 49.3 °F 47.6 °F 29.78 in West 2.0 mph 5.0 mph 94% 0.00 in
05:19 49.3 °F 47.9 °F 29.78 in WSW 3.0 mph 4.0 mph 95% 0.00 in
05:24 49.4 °F 48.0 °F 29.78 in WSW 2.0 mph 5.0 mph 95% 0.00 in
05:29 49.6 °F 48.2 °F 29.79 in WSW 3.0 mph 5.0 mph 95% 0.00 in
05:34 49.8 °F 48.4 °F 29.79 in SW 4.0 mph 6.0 mph 95% 0.00 in
05:39 49.8 °F 48.4 °F 29.80 in SW 7.0 mph 8.0 mph 95% 0.00 in
05:44 49.6 °F 48.2 °F 29.80 in SW 2.0 mph 8.0 mph 95% 0.00 in
05:49 49.3 °F 47.6 °F 29.79 in WSW 1.0 mph 5.0 mph 94% 0.00 in
05:54 49.0 °F 47.3 °F 29.79 in SW 2.0 mph 5.0 mph 94% 0.00 in
05:59 48.8 °F 47.2 °F 29.80 in SW 2.0 mph 6.0 mph 94% 0.00 in
06:04 48.5 °F 47.1 °F 29.81 in SW 3.0 mph 6.0 mph 95% 0.00 in
06:09 48.1 °F 46.5 °F 29.81 in SW 4.0 mph 7.0 mph 94% 0.00 in
06:14 47.8 °F 46.2 °F 29.81 in SW 4.0 mph 7.0 mph 94% 0.00 in
06:19 47.7 °F 46.3 °F 29.81 in SW 4.0 mph 8.0 mph 95% 0.00 in
06:24 47.4 °F 45.8 °F 29.81 in SSW 5.0 mph 9.0 mph 94% 0.00 in
06:29 47.0 °F 45.4 °F 29.81 in WSW 5.0 mph 9.0 mph 94% 0.00 in
06:34 47.1 °F 45.5 °F 29.83 in West 3.0 mph 9.0 mph 94% 0.00 in
06:39 47.0 °F 45.6 °F 29.82 in SW 4.0 mph 9.0 mph 95% 0.00 in
06:44 47.0 °F 45.6 °F 29.82 in WSW 3.0 mph 11.0 mph 95% 0.00 in
06:49 47.0 °F 45.6 °F 29.83 in WSW 5.0 mph 12.0 mph 95% 0.00 in
06:54 47.0 °F 45.6 °F 29.83 in WSW 5.0 mph 12.0 mph 95% 0.00 in
06:59 47.0 °F 45.6 °F 29.83 in WSW 5.0 mph 10.0 mph 95% 0.00 in
07:04 46.9 °F 45.5 °F 29.84 in WSW 6.0 mph 11.0 mph 95% 0.00 in
07:09 46.9 °F 45.5 °F 29.84 in SW 6.0 mph 10.0 mph 95% 0.00 in
07:14 46.8 °F 45.4 °F 29.84 in WSW 5.0 mph 10.0 mph 95% 0.00 in
07:19 46.7 °F 45.3 °F 29.84 in WSW 5.0 mph 11.0 mph 95% 0.00 in
07:24 46.5 °F 45.1 °F 29.84 in WSW 5.0 mph 14.0 mph 95% 0.00 in
07:29 46.5 °F 45.1 °F 29.84 in WSW 5.0 mph 14.0 mph 95% 0.00 in
07:34 46.6 °F 45.2 °F 29.84 in SW 6.0 mph 10.0 mph 95% 0.00 in
07:39 46.7 °F 45.3 °F 29.84 in SW 5.0 mph 8.0 mph 95% 0.00 in
07:44 46.7 °F 45.3 °F 29.85 in SW 6.0 mph 11.0 mph 95% 0.00 in
07:49 46.7 °F 45.3 °F 29.85 in SW 6.0 mph 12.0 mph 95% 0.00 in
07:54 46.9 °F 45.5 °F 29.85 in SW 6.0 mph 12.0 mph 95% 0.00 in
07:59 47.0 °F 45.6 °F 29.85 in WSW 7.0 mph 13.0 mph 95% 0.00 in
08:04 46.9 °F 45.5 °F 29.86 in WSW 5.0 mph 13.0 mph 95% 0.00 in
08:09 47.0 °F 45.6 °F 29.86 in WSW 4.0 mph 13.0 mph 95% 0.00 in
08:14 47.0 °F 45.6 °F 29.86 in WSW 6.0 mph 12.0 mph 95% 0.00 in
08:19 47.1 °F 45.7 °F 29.86 in West 3.0 mph 9.0 mph 95% 0.00 in
08:24 47.0 °F 45.6 °F 29.86 in WSW 5.0 mph 13.0 mph 95% 0.00 in
08:29 46.9 °F 45.5 °F 29.86 in WSW 5.0 mph 13.0 mph 95% 0.00 in
08:34 47.0 °F 45.6 °F 29.86 in WSW 4.0 mph 13.0 mph 95% 0.00 in
08:39 46.7 °F 45.3 °F 29.87 in SW 8.0 mph 11.0 mph 95% 0.00 in
08:44 46.6 °F 45.2 °F 29.87 in WSW 6.0 mph 13.0 mph 95% 0.00 in
08:49 46.5 °F 45.1 °F 29.87 in SW 9.0 mph 10.0 mph 95% 0.00 in
08:54 46.3 °F 44.9 °F 29.86 in WSW 6.0 mph 13.0 mph 95% 0.00 in
08:59 46.2 °F 44.8 °F 29.86 in WSW 6.0 mph 13.0 mph 95% 0.00 in
09:04 46.3 °F 44.9 °F 29.86 in WSW 5.0 mph 11.0 mph 95% 0.00 in
09:09 46.4 °F 45.0 °F 29.86 in WSW 10.0 mph 11.0 mph 95% 0.00 in
09:14 46.5 °F 45.1 °F 29.86 in SW 4.0 mph 10.0 mph 95% 0.00 in
09:19 46.4 °F 45.0 °F 29.86 in West 5.0 mph 10.0 mph 95% 0.00 in
09:24 46.6 °F 45.2 °F 29.86 in WSW 6.0 mph 10.0 mph 95% 0.00 in
09:29 46.8 °F 45.7 °F 29.86 in WSW 5.0 mph 10.0 mph 96% 0.00 in
09:34 46.7 °F 45.3 °F 29.86 in WSW 5.0 mph 13.0 mph 95% 0.00 in
09:39 46.6 °F 45.2 °F 29.87 in WSW 5.0 mph 13.0 mph 95% 0.00 in
09:44 46.2 °F 44.8 °F 29.87 in WSW 6.0 mph 16.0 mph 95% 0.00 in
09:49 46.0 °F 44.6 °F 29.87 in WSW 8.0 mph 11.0 mph 95% 0.00 in
09:54 45.7 °F 44.4 °F 29.87 in West 5.0 mph 13.0 mph 95% 0.00 in
09:59 45.8 °F 44.4 °F 29.87 in SW 6.0 mph 11.0 mph 95% 0.00 in
10:04 45.9 °F 44.5 °F 29.87 in SW 3.0 mph 12.0 mph 95% 0.00 in
10:09 46.0 °F 44.6 °F 29.87 in SW 4.0 mph 11.0 mph 95% 0.00 in
10:14 46.5 °F 45.1 °F 29.87 in West 5.0 mph 9.0 mph 95% 0.00 in
10:19 46.8 °F 45.4 °F 29.87 in SW 4.0 mph 10.0 mph 95% 0.00 in
10:24 47.0 °F 45.6 °F 29.87 in WSW 4.0 mph 10.0 mph 95% 0.00 in
10:29 47.2 °F 45.8 °F 29.87 in WSW 4.0 mph 8.0 mph 95% 0.00 in
10:34 47.1 °F 45.5 °F 29.87 in WSW 5.0 mph 10.0 mph 94% 0.00 in
10:39 47.2 °F 45.6 °F 29.88 in WSW 5.0 mph 10.0 mph 94% 0.00 in
10:44 47.1 °F 45.5 °F 29.87 in SW 6.0 mph 13.0 mph 94% 0.00 in
10:49 46.4 °F 44.5 °F 29.88 in SW 7.0 mph 13.0 mph 93% 0.00 in
10:54 46.1 °F 44.5 °F 29.88 in SW 7.0 mph 15.0 mph 94% 0.00 in
10:59 46.0 °F 44.4 °F 29.88 in WSW 11.0 mph 11.0 mph 94% 0.00 in
11:04 46.1 °F 44.5 °F 29.88 in WSW 3.0 mph 10.0 mph 94% 0.00 in
11:09 46.4 °F 44.8 °F 29.88 in NW 7.0 mph 11.0 mph 94% 0.00 in
11:14 46.4 °F 44.8 °F 29.87 in West 10.0 mph 12.0 mph 94% 0.00 in
11:19 46.4 °F 44.8 °F 29.88 in WSW 9.0 mph 12.0 mph 94% 0.00 in
11:24 46.6 °F 45.0 °F 29.88 in SSW 2.0 mph 11.0 mph 94% 0.00 in
11:29 46.7 °F 44.8 °F 29.88 in WSW 6.0 mph 13.0 mph 93% 0.00 in
11:34 46.6 °F 44.7 °F 29.88 in SW 6.0 mph 13.0 mph 93% 0.00 in
11:39 46.7 °F 44.8 °F 29.89 in WSW 7.0 mph 13.0 mph 93% 0.00 in
11:44 46.9 °F 45.0 °F 29.89 in WSW 8.0 mph 17.0 mph 93% 0.00 in
11:49 47.0 °F 44.8 °F 29.88 in WSW 7.0 mph 17.0 mph 92% 0.00 in
11:54 47.1 °F 44.6 °F 29.89 in West 4.0 mph 16.0 mph 91% 0.00 in
11:59 47.5 °F 45.0 °F 29.89 in SW 7.0 mph 16.0 mph 91% 0.00 in
12:04 48.1 °F 45.3 °F 29.88 in SW 7.0 mph 14.0 mph 90% 0.00 in
12:09 48.2 °F 44.8 °F 29.89 in SW 11.0 mph 17.0 mph 88% 0.00 in
12:14 48.3 °F 44.6 °F 29.89 in West 10.0 mph 19.0 mph 87% 0.00 in
12:19 48.2 °F 44.5 °F 29.89 in West 10.0 mph 18.0 mph 87% 0.00 in
12:24 48.3 °F 44.3 °F 29.89 in SSW 10.0 mph 16.0 mph 86% 0.00 in
12:29 48.3 °F 44.0 °F 29.89 in SW 9.0 mph 16.0 mph 85% 0.00 in
12:34 48.2 °F 43.9 °F 29.89 in WSW 8.0 mph 17.0 mph 85% 0.00 in
12:39 48.2 °F 43.6 °F 29.89 in WSW 8.0 mph 17.0 mph 84% 0.00 in
12:44 47.9 °F 43.3 °F 29.89 in WSW 9.0 mph 18.0 mph 84% 0.00 in
12:49 47.7 °F 43.1 °F 29.88 in WSW 9.0 mph 18.0 mph 84% 0.00 in
12:54 47.9 °F 43.6 °F 29.89 in SW 8.0 mph 15.0 mph 85% 0.00 in
12:59 47.9 °F 43.3 °F 29.89 in SW 8.0 mph 18.0 mph 84% 0.00 in
13:04 48.9 °F 44.6 °F 29.89 in WSW 8.0 mph 18.0 mph 85% 0.00 in
13:09 50.0 °F 45.0 °F 29.89 in WSW 5.0 mph 14.0 mph 83% 0.00 in
13:14 50.8 °F 45.5 °F 29.89 in WSW 6.0 mph 14.0 mph 82% 0.00 in
13:19 50.8 °F 45.2 °F 29.89 in WNW 9.0 mph 14.0 mph 81% 0.00 in
13:24 50.8 °F 45.5 °F 29.89 in WSW 7.0 mph 15.0 mph 82% 0.00 in
13:29 50.2 °F 44.6 °F 29.89 in SW 9.0 mph 20.0 mph 81% 0.00 in
13:34 50.0 °F 44.4 °F 29.89 in WSW 10.0 mph 20.0 mph 81% 0.00 in
13:39 50.2 °F 44.6 °F 29.89 in West 7.0 mph 19.0 mph 81% 0.00 in
13:44 50.7 °F 45.1 °F 29.90 in WSW 7.0 mph 19.0 mph 81% 0.00 in
13:49 51.4 °F 45.1 °F 29.90 in SSW 14.0 mph 19.0 mph 79% 0.00 in
13:54 52.0 °F 45.0 °F 29.89 in SW 15.0 mph 19.0 mph 77% 0.00 in
13:59 52.1 °F 44.8 °F 29.89 in SW 11.0 mph 21.0 mph 76% 0.00 in
14:04 52.1 °F 44.4 °F 29.89 in WSW 12.0 mph 21.0 mph 75% 0.00 in
14:09 52.2 °F 44.5 °F 29.90 in WSW 11.0 mph 24.0 mph 75% 0.00 in
14:14 52.0 °F 44.3 °F 29.90 in West 7.0 mph 17.0 mph 75% 0.00 in
14:19 51.8 °F 44.1 °F 29.90 in SSW 7.0 mph 13.0 mph 75% 0.00 in
14:24 51.0 °F 43.7 °F 29.90 in SW 9.0 mph 14.0 mph 76% 0.00 in
14:29 50.8 °F 43.5 °F 29.90 in WSW 7.0 mph 14.0 mph 76% 0.00 in
14:34 50.9 °F 44.3 °F 29.90 in WSW 8.0 mph 15.0 mph 78% 0.00 in
14:39 50.9 °F 43.9 °F 29.90 in WSW 7.0 mph 21.0 mph 77% 0.00 in
14:44 50.9 °F 43.6 °F 29.90 in WSW 6.0 mph 16.0 mph 76% 0.00 in
14:49 51.2 °F 43.9 °F 29.90 in WSW 13.0 mph 17.0 mph 76% 0.00 in
14:54 50.4 °F 42.8 °F 29.90 in SW 14.0 mph 19.0 mph 75% 0.00 in
14:59 50.1 °F 42.8 °F 29.90 in WSW 14.0 mph 18.0 mph 76% 0.00 in
15:04 49.9 °F 43.0 °F 29.90 in WSW 9.0 mph 18.0 mph 77% 0.00 in
15:09 49.9 °F 42.6 °F 29.90 in WSW 9.0 mph 17.0 mph 76% 0.00 in
15:14 49.8 °F 42.2 °F 29.90 in WSW 9.0 mph 18.0 mph 75% 0.00 in
15:19 49.9 °F 42.3 °F 29.90 in WSW 8.0 mph 19.0 mph 75% 0.00 in
15:24 50.1 °F 42.8 °F 29.90 in WSW 15.0 mph 17.0 mph 76% 0.00 in
15:29 50.0 °F 42.7 °F 29.90 in WSW 9.0 mph 23.0 mph 76% 0.00 in
15:34 50.5 °F 43.2 °F 29.90 in SW 7.0 mph 17.0 mph 76% 0.00 in
15:39 51.2 °F 43.9 °F 29.90 in SW 13.0 mph 13.0 mph 76% 0.00 in
15:44 51.2 °F 42.8 °F 29.91 in West 13.0 mph 21.0 mph 73% 0.00 in
15:49 51.1 °F 42.7 °F 29.91 in WSW 8.0 mph 16.0 mph 73% 0.00 in
15:54 50.6 °F 42.3 °F 29.91 in SW 13.0 mph 23.0 mph 73% 0.00 in
15:59 49.6 °F 41.7 °F 29.91 in WSW 9.0 mph 23.0 mph 74% 0.00 in
16:04 49.6 °F 42.3 °F 29.91 in WSW 8.0 mph 17.0 mph 76% 0.00 in
16:09 49.3 °F 42.1 °F 29.90 in West 7.0 mph 13.0 mph 76% 0.00 in
16:14 49.2 °F 42.0 °F 29.90 in WSW 7.0 mph 17.0 mph 76% 0.00 in
16:19 48.7 °F 41.5 °F 29.90 in WSW 8.0 mph 17.0 mph 76% 0.00 in
16:24 48.2 °F 41.3 °F 29.90 in WSW 7.0 mph 19.0 mph 77% 0.00 in
16:29 48.3 °F 41.8 °F 29.90 in WSW 9.0 mph 19.0 mph 78% 0.00 in
16:34 48.5 °F 42.0 °F 29.91 in WNW 8.0 mph 17.0 mph 78% 0.00 in
16:39 49.2 °F 42.3 °F 29.91 in SSW 5.0 mph 17.0 mph 77% 0.00 in
16:44 49.1 °F 42.2 °F 29.91 in WSW 10.0 mph 17.0 mph 77% 0.00 in
16:49 49.5 °F 42.6 °F 29.92 in West 6.0 mph 12.0 mph 77% 0.00 in
16:54 49.2 °F 42.3 °F 29.92 in SW 9.0 mph 17.0 mph 77% 0.00 in
16:59 48.6 °F 41.7 °F 29.92 in WSW 9.0 mph 19.0 mph 77% 0.00 in
17:04 48.3 °F 41.8 °F 29.92 in WSW 10.0 mph 20.0 mph 78% 0.00 in
17:09 48.1 °F 41.9 °F 29.92 in WSW 9.0 mph 20.0 mph 79% 0.00 in
17:14 48.0 °F 41.8 °F 29.92 in WSW 8.0 mph 18.0 mph 79% 0.00 in
17:19 47.8 °F 41.9 °F 29.92 in West 10.0 mph 21.0 mph 80% 0.00 in
17:24 47.4 °F 41.5 °F 29.93 in WSW 8.0 mph 21.0 mph 80% 0.00 in
17:29 46.9 °F 41.4 °F 29.93 in WSW 9.0 mph 22.0 mph 81% 0.00 in
17:34 46.7 °F 41.2 °F 29.93 in West 6.0 mph 15.0 mph 81% 0.00 in
17:39 46.4 °F 41.2 °F 29.94 in West 10.0 mph 22.0 mph 82% 0.00 in
17:44 46.1 °F 41.2 °F 29.94 in WSW 8.0 mph 16.0 mph 83% 0.00 in
17:49 45.6 °F 41.0 °F 29.95 in WSW 12.0 mph 15.0 mph 84% 0.00 in
17:54 45.3 °F 41.1 °F 29.95 in WSW 8.0 mph 15.0 mph 85% 0.00 in
17:59 45.1 °F 40.9 °F 29.95 in WSW 8.0 mph 13.0 mph 85% 0.00 in
18:04 45.1 °F 41.2 °F 29.95 in WSW 6.0 mph 13.0 mph 86% 0.00 in
18:09 45.0 °F 41.4 °F 29.96 in WSW 5.0 mph 10.0 mph 87% 0.00 in
18:14 44.9 °F 41.3 °F 29.96 in West 7.0 mph 9.0 mph 87% 0.00 in
18:19 44.7 °F 41.4 °F 29.96 in WSW 5.0 mph 10.0 mph 88% 0.00 in
18:24 44.5 °F 41.5 °F 29.96 in WSW 5.0 mph 11.0 mph 89% 0.00 in
18:29 44.4 °F 41.4 °F 29.96 in WSW 5.0 mph 11.0 mph 89% 0.00 in
18:34 44.5 °F 41.7 °F 29.96 in WSW 5.0 mph 9.0 mph 90% 0.00 in
18:39 44.5 °F 41.5 °F 29.96 in West 6.0 mph 9.0 mph 89% 0.00 in
18:44 44.5 °F 41.7 °F 29.96 in SW 4.0 mph 6.0 mph 90% 0.00 in
18:49 44.5 °F 41.7 °F 29.96 in SW 5.0 mph 6.0 mph 90% 0.00 in
18:54 44.5 °F 41.7 °F 29.96 in SW 4.0 mph 8.0 mph 90% 0.00 in
18:59 44.7 °F 41.9 °F 29.96 in WSW 8.0 mph 8.0 mph 90% 0.00 in
19:04 44.7 °F 41.9 °F 29.96 in SW 3.0 mph 8.0 mph 90% 0.00 in
19:09 44.6 °F 41.8 °F 29.96 in SW 2.0 mph 7.0 mph 90% 0.00 in
19:14 44.4 °F 41.4 °F 29.96 in WSW 2.0 mph 9.0 mph 89% 0.00 in
19:19 44.3 °F 41.3 °F 29.96 in SW 4.0 mph 9.0 mph 89% 0.00 in
19:24 44.3 °F 41.3 °F 29.96 in SW 4.0 mph 9.0 mph 89% 0.00 in
19:29 44.5 °F 41.5 °F 29.96 in SW 3.0 mph 8.0 mph 89% 0.00 in
19:34 44.4 °F 41.4 °F 29.97 in SW 4.0 mph 8.0 mph 89% 0.00 in
19:39 44.3 °F 41.3 °F 29.96 in SW 4.0 mph 8.0 mph 89% 0.00 in
19:44 44.4 °F 41.4 °F 29.96 in SW 4.0 mph 8.0 mph 89% 0.00 in
19:49 44.4 °F 41.1 °F 29.97 in SW 4.0 mph 5.0 mph 88% 0.00 in
19:54 44.3 °F 41.0 °F 29.97 in SW 2.0 mph 8.0 mph 88% 0.00 in
19:59 44.4 °F 41.4 °F 29.97 in SW 3.0 mph 5.0 mph 89% 0.00 in
20:04 44.3 °F 41.0 °F 29.97 in WSW 3.0 mph 6.0 mph 88% 0.00 in
20:09 44.4 °F 41.1 °F 29.97 in SW 1.0 mph 5.0 mph 88% 0.00 in
20:14 44.5 °F 41.2 °F 29.98 in WSW 2.0 mph 5.0 mph 88% 0.00 in
20:19 44.3 °F 41.0 °F 29.98 in SW 6.0 mph 6.0 mph 88% 0.00 in
20:24 44.3 °F 41.0 °F 29.98 in SW 3.0 mph 6.0 mph 88% 0.00 in
20:29 44.3 °F 41.0 °F 29.98 in SW 3.0 mph 6.0 mph 88% 0.00 in
20:34 44.2 °F 40.9 °F 29.98 in SSW 3.0 mph 6.0 mph 88% 0.00 in
20:39 44.2 °F 40.9 °F 29.98 in SW 3.0 mph 6.0 mph 88% 0.00 in
20:44 44.3 °F 41.0 °F 29.98 in SW 2.0 mph 4.0 mph 88% 0.00 in
20:49 44.3 °F 41.3 °F 29.98 in SW 2.0 mph 4.0 mph 89% 0.00 in
20:59 44.5 °F 41.2 °F 29.99 in SW 2.0 mph 4.0 mph 88% 0.00 in
21:04 44.6 °F 41.3 °F 29.99 in SW 2.0 mph 4.0 mph 88% 0.00 in
21:09 44.8 °F 41.5 °F 29.99 in SW 1.0 mph 3.0 mph 88% 0.00 in
21:14 45.0 °F 41.7 °F 29.99 in WSW 2.0 mph 4.0 mph 88% 0.00 in
21:19 45.1 °F 41.5 °F 29.99 in Calm   4.0 mph 87% 0.00 in
21:24 45.2 °F 41.6 °F 30.00 in Calm   3.0 mph 87% 0.00 in
21:29 45.2 °F 41.6 °F 30.00 in SSW 1.0 mph 3.0 mph 87% 0.00 in
21:34 45.2 °F 41.6 °F 30.00 in SW 2.0 mph 4.0 mph 87% 0.00 in
21:39 45.1 °F 41.5 °F 30.00 in SW 3.0 mph 5.0 mph 87% 0.00 in
21:44 45.2 °F 41.6 °F 30.00 in SW 3.0 mph 5.0 mph 87% 0.00 in
21:49 45.2 °F 41.6 °F 30.00 in SW 3.0 mph 3.0 mph 87% 0.00 in
21:54 45.2 °F 41.9 °F 30.00 in SW 2.0 mph 4.0 mph 88% 0.00 in
21:59 45.2 °F 41.6 °F 30.00 in SW 3.0 mph 3.0 mph 87% 0.00 in
22:04 45.2 °F 41.6 °F 30.00 in Calm   3.0 mph 87% 0.00 in
22:09 45.4 °F 41.2 °F 30.01 in NW 2.0 mph 8.0 mph 85% 0.00 in
22:14 45.8 °F 40.6 °F 30.00 in West 3.0 mph 6.0 mph 82% 0.00 in
22:19 46.0 °F 40.5 °F 30.00 in WNW 3.0 mph 8.0 mph 81% 0.00 in
22:24 46.1 °F 39.6 °F 30.01 in WNW 3.0 mph 8.0 mph 78% 0.00 in
22:29 46.1 °F 39.6 °F 30.01 in WNW 3.0 mph 8.0 mph 78% 0.00 in
22:34 46.2 °F 39.4 °F 30.01 in WNW 2.0 mph 5.0 mph 77% 0.00 in
22:39 46.1 °F 39.3 °F 30.01 in Calm   4.0 mph 77% 0.00 in
22:44 46.1 °F 39.3 °F 30.01 in West 2.0 mph 3.0 mph 77% 0.00 in
22:49 46.0 °F 39.2 °F 30.01 in West 1.0 mph 5.0 mph 77% 0.00 in
22:54 46.0 °F 38.9 °F 30.01 in West 2.0 mph 9.0 mph 76% 0.00 in
22:59 45.9 °F 38.8 °F 30.01 in West 3.0 mph 9.0 mph 76% 0.00 in
23:04 45.9 °F 38.4 °F 30.01 in West 4.0 mph 7.0 mph 75% 0.00 in
23:09 45.8 °F 38.7 °F 30.01 in West 2.0 mph 7.0 mph 76% 0.00 in
23:14 45.8 °F 38.7 °F 30.02 in West 6.0 mph 8.0 mph 76% 0.00 in
23:19 45.7 °F 38.6 °F 30.02 in West 3.0 mph 8.0 mph 76% 0.00 in
23:24 45.7 °F 38.6 °F 30.02 in West 1.0 mph 6.0 mph 76% 0.00 in
23:29 45.7 °F 38.2 °F 30.02 in West 3.0 mph 7.0 mph 75% 0.00 in
23:34 45.7 °F 38.2 °F 30.02 in WSW 3.0 mph 8.0 mph 75% 0.00 in
23:39 45.6 °F 38.1 °F 30.02 in WSW 4.0 mph 7.0 mph 75% 0.00 in
23:44 45.6 °F 38.1 °F 30.02 in West 5.0 mph 8.0 mph 75% 0.00 in
23:49 45.5 °F 38.0 °F 30.02 in West 4.0 mph 8.0 mph 75% 0.00 in
23:54 45.4 °F 37.9 °F 30.02 in West 4.0 mph 8.0 mph 75% 0.00 in
23:59 45.3 °F 37.8 °F 30.02 in West 5.0 mph 10.0 mph 75% 0.00 in
Buffalo, New York, USA
Compliments of Weather Underground - 2.5 mb